Time;durP1;ratioP1;P1;durP2;ratioP2;P2;SDS_P1;SDS_P2;PMS_P1;PMS_P2;Temp;Humidity;BMP_temperature;BMP_pressure;BME280_temperature;BME280_humidity;BME280_pressure;Samples;Min_cycle;Max_cycle;Signal;HPM_P1;HPM_P2
2022/02/23 00:02:24;;;;;;;25.17;4.47;;;;;;;6.44;86.15;101372.22;5009666;28;20183;-72
2022/02/23 00:04:49;;;;;;;26.23;5.43;;;;;;;6.43;86.53;101389.94;5009492;28;20229;-72
2022/02/23 00:07:14;;;;;;;31.17;5.30;;;;;;;6.45;86.05;101393.44;5009656;28;20187;-71
2022/02/23 00:09:40;;;;;;;26.90;5.07;;;;;;;6.47;86.26;101400.34;5009202;28;20199;-72
2022/02/23 00:12:05;;;;;;;23.03;4.77;;;;;;;6.48;86.71;101407.16;5007937;28;20276;-71
2022/02/23 00:14:31;;;;;;;19.80;4.60;;;;;;;6.53;86.17;101410.78;5009429;28;20190;-71
2022/02/23 00:16:56;;;;;;;27.77;5.13;;;;;;;6.58;85.69;101419.47;5009542;28;20190;-71
2022/02/23 00:19:21;;;;;;;28.43;5.13;;;;;;;6.58;86.26;101419.47;5009512;28;20187;-71
2022/02/23 00:21:46;;;;;;;26.83;5.13;;;;;;;6.57;86.17;101422.81;5008784;28;20297;-71
2022/02/23 00:24:12;;;;;;;28.87;4.97;;;;;;;6.58;85.95;101423.72;5009457;28;20294;-71
2022/02/23 00:26:37;;;;;;;26.37;5.33;;;;;;;6.59;85.89;101425.44;5009427;28;20225;-71
2022/02/23 00:29:04;;;;;;;22.53;4.50;;;;;;;6.58;85.99;101444.06;5008146;28;20221;-71
2022/02/23 00:31:29;;;;;;;27.97;5.13;;;;;;;6.58;86.67;101444.06;5008881;28;20306;-71
2022/02/23 00:33:54;;;;;;;26.90;4.70;;;;;;;6.58;86.67;101450.00;5009283;28;20317;-71
2022/02/23 00:36:20;;;;;;;28.57;5.03;;;;;;;6.61;86.16;101454.34;5009359;28;20178;-71
2022/02/23 00:38:45;;;;;;;25.47;5.53;;;;;;;6.61;85.82;101451.81;5009178;28;20198;-71
2022/02/23 00:41:10;;;;;;;31.00;5.47;;;;;;;6.61;86.25;101459.44;5009008;28;20293;-71
2022/02/23 00:43:36;;;;;;;29.43;5.23;;;;;;;6.62;86.03;101462.06;5009125;28;20219;-70
2022/02/23 00:46:02;;;;;;;25.97;4.67;;;;;;;6.63;85.32;101466.34;5009278;28;20194;-71
2022/02/23 00:48:27;;;;;;;26.77;4.77;;;;;;;6.64;85.46;101462.13;5008935;28;20661;-71
2022/02/23 00:50:53;;;;;;;25.50;5.27;;;;;;;6.67;85.26;101473.31;5009218;28;20203;-72
2022/02/23 00:53:18;;;;;;;29.43;5.30;;;;;;;6.69;84.80;101479.34;5007270;28;20180;-71
2022/02/23 00:55:44;;;;;;;32.43;5.57;;;;;;;6.70;84.86;101486.19;5008134;28;20843;-71
2022/02/23 00:58:09;;;;;;;24.87;4.60;;;;;;;6.72;85.20;101493.88;5008967;28;20187;-71
2022/02/23 01:00:35;;;;;;;22.90;5.40;;;;;;;6.74;84.22;101479.53;5009409;28;20211;-71
2022/02/23 01:03:00;;;;;;;22.63;5.07;;;;;;;6.73;85.17;101498.16;5011010;28;20215;-71
2022/02/23 01:05:25;;;;;;;25.43;5.67;;;;;;;6.75;85.31;101496.56;5011286;28;20198;-72
2022/02/23 01:07:50;;;;;;;31.90;5.40;;;;;;;6.73;85.04;101493.94;5012400;28;20183;-71
2022/02/23 01:10:16;;;;;;;25.03;5.17;;;;;;;6.78;84.43;101504.34;5012183;28;20183;-72
2022/02/23 01:12:41;;;;;;;29.73;6.03;;;;;;;6.77;85.21;101505.16;5010834;28;20198;-71
2022/02/23 01:15:07;;;;;;;32.63;5.73;;;;;;;6.82;85.28;101499.44;5012475;28;20618;-71
2022/02/23 01:17:33;;;;;;;30.50;5.73;;;;;;;6.84;85.16;101505.47;5012324;28;20555;-71
2022/02/23 01:19:58;;;;;;;27.23;5.70;;;;;;;6.88;84.37;101511.56;5012045;28;20198;-71
2022/02/23 01:22:24;;;;;;;29.97;5.57;;;;;;;6.87;85.27;101505.59;5011992;28;20191;-72
2022/02/23 01:24:49;;;;;;;27.70;4.93;;;;;;;6.87;84.38;101514.94;5012273;28;20302;-72
2022/02/23 01:27:15;;;;;;;27.87;5.43;;;;;;;6.90;84.47;101513.38;5012250;28;20695;-72
2022/02/23 01:29:40;;;;;;;22.70;4.63;;;;;;;6.88;84.89;101520.09;5011817;28;20676;-71
2022/02/23 01:32:06;;;;;;;30.20;5.50;;;;;;;6.87;85.38;101518.31;5010378;28;20211;-71
2022/02/23 01:34:31;;;;;;;26.97;5.10;;;;;;;6.88;84.71;101529.38;5011939;28;20319;-71
2022/02/23 01:36:57;;;;;;;29.97;5.43;;;;;;;6.85;85.58;101529.25;5011940;28;20183;-72
2022/02/23 01:39:22;;;;;;;33.87;6.60;;;;;;;6.87;84.67;101535.28;5011694;28;20271;-71
2022/02/23 01:41:47;;;;;;;25.17;5.47;;;;;;;6.84;84.81;101530.94;5011697;28;20298;-71
2022/02/23 01:44:13;;;;;;;27.93;5.30;;;;;;;6.86;85.46;101536.09;5011885;28;20298;-71
2022/02/23 01:46:38;;;;;;;27.50;5.53;;;;;;;6.83;85.42;101544.47;5010527;28;20226;-73
2022/02/23 01:49:03;;;;;;;26.83;6.57;;;;;;;6.80;84.85;101533.25;5011636;28;20216;-71
2022/02/23 01:51:30;;;;;;;27.53;5.20;;;;;;;6.85;84.95;101547.06;5010214;28;20776;-72
2022/02/23 01:53:55;;;;;;;22.43;4.87;;;;;;;6.88;83.86;101554.84;5010367;28;20987;-72
2022/02/23 01:56:21;;;;;;;23.67;5.70;;;;;;;6.84;84.28;101541.13;5011495;28;20314;-72
2022/02/23 01:58:46;;;;;;;28.33;5.67;;;;;;;6.83;84.80;101553.75;5011218;28;20194;-71
2022/02/23 02:01:12;;;;;;;26.30;4.67;;;;;;;6.84;84.49;101561.47;5009995;28;20239;-71
2022/02/23 02:03:37;;;;;;;20.43;4.27;;;;;;;6.86;83.82;101561.56;5011595;28;20351;-72
2022/02/23 02:06:03;;;;;;;21.87;4.57;;;;;;;6.85;83.94;101563.22;5011723;28;20179;-71
2022/02/23 02:08:28;;;;;;;22.73;5.57;;;;;;;6.83;84.71;101564.81;5011343;28;20685;-71
2022/02/23 02:10:53;;;;;;;26.47;6.13;;;;;;;6.88;83.84;101565.03;5011432;28;20207;-72
2022/02/23 02:13:19;;;;;;;29.17;5.80;;;;;;;6.86;83.95;101566.63;5010274;28;20179;-71
2022/02/23 02:15:44;;;;;;;23.60;4.70;;;;;;;6.87;84.24;101565.84;5011295;28;20249;-71
2022/02/23 02:18:09;;;;;;;26.60;5.03;;;;;;;6.86;84.45;101572.59;5011314;28;20237;-71
2022/02/23 02:20:35;;;;;;;25.27;5.80;;;;;;;6.88;83.57;101576.09;5010776;28;20223;-70
2022/02/23 02:23:00;;;;;;;25.53;4.73;;;;;;;6.90;83.65;101571.03;5010916;28;20203;-71
2022/02/23 02:25:25;;;;;;;29.63;4.83;;;;;;;6.90;83.25;101573.59;5011151;28;20209;-71
2022/02/23 02:27:51;;;;;;;31.33;5.63;;;;;;;6.89;83.30;101587.13;5011272;28;20183;-71
2022/02/23 02:30:16;;;;;;;29.23;6.27;;;;;;;6.92;84.08;101590.69;5010535;28;20198;-71
2022/02/23 02:32:42;;;;;;;31.13;5.50;;;;;;;6.92;83.24;101600.88;5010631;28;20562;-71
2022/02/23 02:35:07;;;;;;;20.90;4.43;;;;;;;6.89;83.34;101594.75;5010878;28;20198;-72
2022/02/23 02:37:33;;;;;;;27.07;4.97;;;;;;;6.86;84.25;101602.28;5010862;28;20195;-71
2022/02/23 02:39:58;;;;;;;29.67;5.67;;;;;;;6.84;84.37;101608.94;5010480;28;20215;-71
2022/02/23 02:42:24;;;;;;;20.53;4.37;;;;;;;6.85;84.34;101621.75;5010658;28;20242;-71
2022/02/23 02:44:49;;;;;;;26.90;5.70;;;;;;;6.85;83.61;101626.84;5010639;28;20305;-70
2022/02/23 02:47:15;;;;;;;28.63;5.80;;;;;;;6.89;83.82;101625.31;5010700;28;20190;-71
2022/02/23 02:49:41;;;;;;;29.77;5.03;;;;;;;6.88;84.00;101629.53;5010263;28;20654;-72
2022/02/23 02:52:07;;;;;;;23.93;5.67;;;;;;;6.85;84.10;101633.59;5010555;28;20207;-73
2022/02/23 02:54:33;;;;;;;20.57;4.23;;;;;;;6.85;83.99;101641.22;5010582;28;20180;-71
2022/02/23 02:56:59;;;;;;;22.90;5.33;;;;;;;6.86;84.04;101645.53;5009085;28;20569;-72
2022/02/23 02:59:25;;;;;;;23.20;4.60;;;;;;;6.85;83.84;101652.28;5009778;28;20241;-72
2022/02/23 03:01:50;;;;;;;17.17;4.70;;;;;;;6.83;85.25;101653.03;5010235;28;20194;-71
2022/02/23 03:04:16;;;;;;;24.17;4.97;;;;;;;6.82;84.58;101659.78;5010442;28;20238;-71
2022/02/23 03:06:41;;;;;;;24.50;5.97;;;;;;;6.75;84.58;101665.38;5010418;28;20195;-72
2022/02/23 03:09:07;;;;;;;25.97;5.57;;;;;;;6.73;84.75;101672.06;5010255;28;20282;-71
2022/02/23 03:11:33;;;;;;;30.43;5.53;;;;;;;6.69;85.12;101670.19;5008854;28;20908;-70
2022/02/23 03:13:59;;;;;;;32.87;5.40;;;;;;;6.67;85.46;101676.88;5010436;28;20546;-71
2022/02/23 03:16:25;;;;;;;32.70;5.70;;;;;;;6.67;85.05;101683.63;5010518;28;20193;-71
2022/02/23 03:18:50;;;;;;;31.90;5.77;;;;;;;6.62;85.09;101691.03;5009994;28;20666;-71
2022/02/23 03:21:16;;;;;;;29.70;5.20;;;;;;;6.67;84.81;101689.59;5009873;28;20724;-71
2022/02/23 03:23:41;;;;;;;22.70;4.77;;;;;;;6.65;85.10;101703.94;5009852;28;20226;-71
2022/02/23 03:26:14;;;;;;;27.60;5.30;;;;;;;6.64;84.68;101711.47;5008818;28;20183;-71
2022/02/23 03:28:40;;;;;;;28.40;5.10;;;;;;;6.63;84.44;101707.19;5009168;28;20273;-72
2022/02/23 03:31:07;;;;;;;24.87;4.63;;;;;;;6.63;84.81;101712.28;5008882;28;20214;-71
2022/02/23 03:33:33;;;;;;;21.43;4.83;;;;;;;6.64;84.84;101721.66;5008232;28;20191;-71
2022/02/23 03:35:59;;;;;;;28.50;5.73;;;;;;;6.66;84.86;101717.50;5009757;28;20195;-71
2022/02/23 03:38:24;;;;;;;24.47;5.27;;;;;;;6.66;85.17;101725.13;4987915;28;20287;-72
2022/02/23 03:40:50;;;;;;;23.77;5.57;;;;;;;6.65;84.66;101724.28;4998023;28;20813;-71
2022/02/23 03:43:17;;;;;;;25.73;4.73;;;;;;;6.64;84.69;101726.75;5009309;28;20213;-72
2022/02/23 03:45:43;;;;;;;23.20;4.10;;;;;;;6.59;84.33;101728.19;5009677;28;20190;-71
2022/02/23 03:48:08;;;;;;;21.20;4.43;;;;;;;6.62;83.18;101736.84;5009430;28;20183;-71
2022/02/23 03:50:34;;;;;;;28.17;4.57;;;;;;;6.62;82.69;101748.66;5009746;28;20213;-73
2022/02/23 03:52:59;;;;;;;24.53;4.40;;;;;;;6.62;82.90;101744.47;5009609;28;20190;-71
2022/02/23 03:55:24;;;;;;;25.13;4.07;;;;;;;6.64;83.08;101760.66;5009687;28;20229;-70
2022/02/23 03:57:50;;;;;;;25.63;5.17;;;;;;;6.63;83.60;101756.38;5009594;28;20189;-70
2022/02/23 04:00:16;;;;;;;22.67;4.60;;;;;;;6.60;84.50;101760.47;5009468;28;20187;-71
2022/02/23 04:02:43;;;;;;;20.33;4.00;;;;;;;6.59;85.17;101759.56;5009480;28;20229;-71
2022/02/23 04:05:10;;;;;;;24.40;4.53;;;;;;;6.59;84.62;101779.06;5009449;28;20215;-71
2022/02/23 04:07:36;;;;;;;23.97;4.20;;;;;;;6.59;84.93;101779.94;5009577;28;20190;-71
2022/02/23 04:10:01;;;;;;;26.23;4.93;;;;;;;6.58;85.41;101790.06;5009090;28;20194;-71
2022/02/23 04:12:27;;;;;;;22.17;5.77;;;;;;;6.61;83.85;101780.91;5009319;28;20202;-71
2022/02/23 04:14:52;;;;;;;29.10;5.27;;;;;;;6.63;83.40;101784.38;5009653;28;20626;-71
2022/02/23 04:17:18;;;;;;;23.37;4.00;;;;;;;6.67;81.98;101780.31;5009556;28;20245;-72
2022/02/23 04:19:43;;;;;;;20.67;4.50;;;;;;;6.66;81.99;101788.75;5009045;28;20195;-71
2022/02/23 04:22:09;;;;;;;25.37;4.80;;;;;;;6.66;81.76;101787.09;5009055;28;20222;-71
2022/02/23 04:24:34;;;;;;;15.83;3.47;;;;;;;6.69;79.70;101784.72;5009372;28;20217;-72
2022/02/23 04:27:01;;;;;;;21.60;4.43;;;;;;;6.74;79.74;101798.53;5009472;28;20256;-71
2022/02/23 04:29:27;;;;;;;22.40;5.17;;;;;;;6.74;79.54;101798.53;5009390;28;20223;-72
2022/02/23 04:31:53;;;;;;;18.57;3.77;;;;;;;6.72;80.17;101802.66;5009098;28;20269;-72
2022/02/23 04:34:19;;;;;;;20.67;3.70;;;;;;;6.68;80.96;101805.84;5009460;28;20187;-71
2022/02/23 04:36:44;;;;;;;26.20;4.33;;;;;;;6.71;80.03;101811.09;5011847;28;20685;-71
2022/02/23 04:39:10;;;;;;;22.03;4.67;;;;;;;6.71;81.06;101825.47;5012381;28;20179;-71
2022/02/23 04:41:35;;;;;;;24.77;4.30;;;;;;;6.72;80.22;101822.16;5012024;28;20689;-72
2022/02/23 04:44:01;;;;;;;21.77;4.60;;;;;;;6.70;80.73;101832.25;5012571;28;20203;-71
2022/02/23 04:46:27;;;;;;;25.77;4.90;;;;;;;6.69;81.19;101830.50;4995164;28;20582;-71
2022/02/23 04:48:52;;;;;;;21.90;4.93;;;;;;;6.69;81.44;101835.59;5012896;28;20183;-71
2022/02/23 04:51:19;;;;;;;22.93;5.63;;;;;;;6.71;81.50;101839.06;5012870;28;20207;-71
2022/02/23 04:53:46;;;;;;;20.70;4.00;;;;;;;6.73;81.39;101846.81;5012738;28;20904;-71
2022/02/23 04:56:12;;;;;;;21.70;5.17;;;;;;;6.72;81.60;101848.47;5011804;28;20630;-71
2022/02/23 04:58:37;;;;;;;21.77;4.17;;;;;;;6.70;81.58;101864.44;5012609;28;20191;-71
2022/02/23 05:01:04;;;;;;;21.83;4.70;;;;;;;6.69;81.97;101858.50;5012621;28;20716;-72
2022/02/23 05:03:30;;;;;;;21.47;4.17;;;;;;;6.70;81.36;101869.53;5012240;28;20215;-72
2022/02/23 05:05:55;;;;;;;20.77;4.70;;;;;;;6.68;81.96;101877.09;5010901;28;20550;-71
2022/02/23 05:08:21;;;;;;;20.87;4.10;;;;;;;6.69;81.34;101873.78;5012433;28;20191;-73
2022/02/23 05:10:46;;;;;;;19.60;4.17;;;;;;;6.68;81.65;101882.16;5012410;28;20290;-72
2022/02/23 05:13:16;;;;;;;22.57;4.33;;;;;;;6.64;82.08;101885.34;5012350;28;20160;-71
2022/02/23 05:15:42;;;;;;;21.00;4.13;;;;;;;6.66;81.98;101890.53;5011095;28;20206;-72
2022/02/23 05:18:08;;;;;;;22.63;4.50;;;;;;;6.66;82.85;101893.06;5011814;28;20187;-71
2022/02/23 05:20:34;;;;;;;21.23;4.73;;;;;;;6.68;82.54;101894.91;5010693;28;20217;-70
2022/02/23 05:23:00;;;;;;;25.53;5.37;;;;;;;6.65;82.75;101897.31;5012140;28;20195;-71
2022/02/23 05:25:26;;;;;;;24.60;5.07;;;;;;;6.63;83.17;101892.94;5012156;28;20200;-71
2022/02/23 05:27:52;;;;;;;25.40;5.13;;;;;;;6.61;82.98;101897.94;5012334;28;20285;-71
2022/02/23 05:30:18;;;;;;;19.90;4.60;;;;;;;6.61;83.09;101903.03;5012386;28;20689;-71
2022/02/23 05:32:44;;;;;;;21.87;4.33;;;;;;;6.60;83.04;101910.56;5010413;28;20210;-70
2022/02/23 05:35:10;;;;;;;25.80;4.47;;;;;;;6.58;82.81;101907.94;5012089;28;20232;-71
2022/02/23 05:37:36;;;;;;;18.33;3.87;;;;;;;6.57;83.41;101924.00;5012276;28;20219;-71
2022/02/23 05:40:03;;;;;;;26.73;4.87;;;;;;;6.56;83.52;101929.91;5012384;28;20753;-71
2022/02/23 05:42:28;;;;;;;26.17;4.97;;;;;;;6.56;84.15;101929.00;5011841;28;20214;-71
2022/02/23 05:44:53;;;;;;;25.20;4.30;;;;;;;6.54;84.34;101940.78;5011645;28;20677;-71
2022/02/23 05:47:19;;;;;;;20.37;4.00;;;;;;;6.54;84.01;101943.34;5011618;28;20223;-71
2022/02/23 05:49:44;;;;;;;25.63;5.63;;;;;;;6.53;84.85;101947.53;5011837;28;20191;-71
2022/02/23 05:52:13;;;;;;;18.23;4.37;;;;;;;6.54;85.30;101958.59;5011919;28;20206;-72
2022/02/23 05:54:38;;;;;;;30.13;4.77;;;;;;;6.49;84.88;101960.03;5011805;28;20194;-72
2022/02/23 05:57:04;;;;;;;30.23;6.10;;;;;;;6.48;84.69;101956.59;5011704;28;20183;-72
2022/02/23 05:59:29;;;;;;;20.63;4.40;;;;;;;6.49;85.03;101967.66;5011226;28;20195;-71
2022/02/23 06:01:54;;;;;;;25.70;5.27;;;;;;;6.47;84.70;101965.03;5011045;28;20296;-72
2022/02/23 06:04:20;;;;;;;28.63;5.30;;;;;;;6.45;84.83;101968.28;5011462;28;20214;-71
2022/02/23 06:06:45;;;;;;;26.77;5.30;;;;;;;6.48;84.58;101984.59;5010239;28;20195;-70
2022/02/23 06:09:11;;;;;;;22.47;4.30;;;;;;;6.49;84.45;101985.47;5011377;28;20199;-71
2022/02/23 06:11:36;;;;;;;25.37;4.77;;;;;;;6.46;84.62;101991.28;5011110;28;20341;-72
2022/02/23 06:14:03;;;;;;;31.10;5.20;;;;;;;6.45;84.54;101993.72;5011426;28;20183;-71
2022/02/23 06:16:29;;;;;;;21.90;4.37;;;;;;;6.46;84.86;102001.44;5011365;28;20191;-71
2022/02/23 06:18:57;;;;;;;25.73;4.90;;;;;;;6.45;85.05;102003.91;5011283;28;20201;-73
2022/02/23 06:21:24;;;;;;;19.93;4.57;;;;;;;6.43;84.69;102008.00;5008922;28;20214;-71
2022/02/23 06:23:50;;;;;;;27.37;4.37;;;;;;;6.44;84.40;102008.09;5010914;28;20302;-72
2022/02/23 06:26:15;;;;;;;26.57;4.33;;;;;;;6.42;84.87;102018.97;5011100;28;20266;-71
2022/02/23 06:28:41;;;;;;;24.40;4.73;;;;;;;6.40;84.83;102023.97;5009669;28;20206;-71
2022/02/23 06:31:07;;;;;;;32.57;5.43;;;;;;;6.41;85.06;102024.88;5011031;28;20215;-72
2022/02/23 06:33:32;;;;;;;24.93;4.63;;;;;;;6.40;83.99;102030.75;5009093;28;20187;-71
2022/02/23 06:35:57;;;;;;;21.23;4.70;;;;;;;6.39;84.29;102031.53;5010992;28;20198;-71
2022/02/23 06:38:23;;;;;;;20.23;3.90;;;;;;;6.40;84.77;102039.25;5011004;28;20187;-71
2022/02/23 06:40:49;;;;;;;23.03;5.03;;;;;;;6.38;84.82;102048.47;5009481;28;20272;-70
2022/02/23 06:43:16;;;;;;;27.63;4.70;;;;;;;6.35;84.88;102052.53;5010642;28;20230;-71
2022/02/23 06:45:46;;;;;;;18.97;4.20;;;;;;;6.36;85.50;102061.91;5010893;28;20185;-71
2022/02/23 06:48:12;;;;;;;27.23;5.90;;;;;;;6.36;84.82;102059.34;5011013;28;20183;-73
2022/02/23 06:50:37;;;;;;;27.47;5.43;;;;;;;6.36;85.48;102060.22;5009863;28;20226;-73
2022/02/23 06:53:03;;;;;;;29.73;4.67;;;;;;;6.40;84.94;102067.22;5011159;28;20554;-71
2022/02/23 06:55:28;;;;;;;24.07;5.30;;;;;;;6.40;85.03;102067.22;5005818;28;20250;-71
2022/02/23 06:57:54;;;;;;;22.80;4.50;;;;;;;6.42;84.80;102074.94;5010745;28;20222;-71
2022/02/23 07:00:20;;;;;;;23.50;4.97;;;;;;;6.43;84.98;102063.97;5010411;28;20220;-72
2022/02/23 07:02:45;;;;;;;28.50;5.23;;;;;;;6.47;85.12;102068.44;5010579;28;20706;-71
2022/02/23 07:05:11;;;;;;;27.40;5.60;;;;;;;6.45;84.31;102072.56;5010538;28;20210;-71
2022/02/23 07:07:37;;;;;;;27.10;5.40;;;;;;;6.40;84.57;102072.31;5009382;28;20192;-71
2022/02/23 07:10:09;;;;;;;23.43;4.50;;;;;;;6.43;84.92;102062.31;5009263;28;20697;-72
2022/02/23 07:12:35;;;;;;;28.83;5.03;;;;;;;6.49;84.55;102077.06;5010136;28;20793;-71
2022/02/23 07:15:00;;;;;;;26.77;4.97;;;;;;;6.51;84.66;102078.00;5010333;28;20194;-71
2022/02/23 07:17:26;;;;;;;24.83;4.97;;;;;;;6.54;84.52;102079.03;5010308;28;20184;-70
2022/02/23 07:19:51;;;;;;;17.53;4.53;;;;;;;6.57;84.11;102080.88;5010136;28;20179;-71
2022/02/23 07:22:17;;;;;;;25.70;5.10;;;;;;;6.70;83.53;102088.38;5009243;28;20202;-71
2022/02/23 07:24:42;;;;;;;25.73;5.33;;;;;;;6.72;83.40;102089.38;5009924;28;20209;-71
2022/02/23 07:27:12;;;;;;;29.73;5.40;;;;;;;6.73;83.96;102088.56;5010063;28;20236;-72
2022/02/23 07:29:37;;;;;;;18.00;3.63;;;;;;;6.77;83.89;102095.56;5008800;28;20222;-71
2022/02/23 07:32:03;;;;;;;29.43;5.37;;;;;;;6.78;83.78;102093.09;5009796;28;20623;-72
2022/02/23 07:34:28;;;;;;;23.20;5.07;;;;;;;6.71;84.42;102092.69;5009949;28;20223;-71
2022/02/23 07:36:54;;;;;;;17.43;4.40;;;;;;;6.77;83.35;102100.66;5009973;28;20187;-71
2022/02/23 07:39:19;;;;;;;21.43;4.50;;;;;;;6.75;83.15;102100.56;4987052;28;20314;-73
2022/02/23 07:41:44;;;;;;;30.37;4.93;;;;;;;6.80;83.90;102104.25;5035583;28;20342;-72
2022/02/23 07:44:11;;;;;;;29.30;4.73;;;;;;;6.81;83.55;102110.22;5037804;28;20230;-73
2022/02/23 07:46:36;;;;;;;27.40;4.97;;;;;;;6.89;82.46;102122.56;5029079;28;20612;-72
2022/02/23 07:49:01;;;;;;;27.17;4.70;;;;;;;6.89;82.91;102129.31;5045698;28;20194;-73
2022/02/23 07:51:28;;;;;;;23.03;3.83;;;;;;;7.01;82.18;102132.53;5049093;28;20243;-71
2022/02/23 07:53:55;;;;;;;19.60;4.03;;;;;;;7.15;81.31;102137.59;5048776;28;20188;-72
2022/02/23 07:56:22;;;;;;;23.27;4.47;;;;;;;7.18;81.06;102135.19;5042809;28;20222;-70
2022/02/23 07:58:48;;;;;;;22.97;3.87;;;;;;;7.53;80.27;102145.59;5029154;28;20201;-71
2022/02/23 08:01:47;;;;;;;17.47;4.43;;;;;;;7.59;79.42;102156.09;5029305;28;20214;-72
2022/02/23 08:04:13;;;;;;;20.30;4.70;;;;;;;7.67;78.99;102157.38;5017253;28;20242;-72
2022/02/23 08:06:40;;;;;;;20.33;4.13;;;;;;;7.71;79.19;102154.19;5029183;28;20189;-72
2022/02/23 08:09:08;;;;;;;21.87;4.57;;;;;;;7.84;78.57;102158.22;5028066;28;20186;-72
2022/02/23 08:11:36;;;;;;;23.30;5.43;;;;;;;7.79;78.95;102155.44;5031402;28;20701;-72
2022/02/23 08:14:03;;;;;;;23.17;4.70;;;;;;;7.80;78.35;102153.78;5044477;28;20293;-71
2022/02/23 08:22:03;;;;;;;16.07;4.43;;;;;;;7.89;77.54;102161.88;5032503;28;20214;-72
2022/02/23 08:24:28;;;;;;;21.50;4.97;;;;;;;8.27;75.35;102157.94;5032844;28;20210;-71
2022/02/23 08:26:55;;;;;;;20.23;4.30;;;;;;;8.49;74.85;102164.97;5031549;28;20595;-71
2022/02/23 08:29:22;;;;;;;22.63;4.50;;;;;;;8.75;74.67;102162.03;5032722;28;20190;-71
2022/02/23 08:31:48;;;;;;;19.47;4.60;;;;;;;8.88;73.76;102165.22;5032547;28;20578;-71
2022/02/23 08:34:13;;;;;;;27.50;4.37;;;;;;;9.08;72.73;102173.81;5032661;28;20178;-72
2022/02/23 08:36:39;;;;;;;19.80;4.60;;;;;;;8.80;72.96;102174.19;5031364;28;20723;-71
2022/02/23 08:39:06;;;;;;;19.13;4.27;;;;;;;8.66;74.38;102182.84;5026518;28;20183;-72
2022/02/23 08:41:32;;;;;;;17.23;3.87;;;;;;;8.50;74.66;102189.69;5032697;28;20195;-71
2022/02/23 08:43:57;;;;;;;19.37;4.13;;;;;;;8.32;75.63;102192.22;5032271;28;20209;-71
2022/02/23 08:46:23;;;;;;;21.20;4.67;;;;;;;8.08;75.58;102198.63;5032581;28;20187;-71
2022/02/23 08:48:48;;;;;;;22.30;5.10;;;;;;;8.11;75.95;102193.66;5049156;28;20260;-71
2022/02/23 08:51:13;;;;;;;18.70;4.07;;;;;;;8.15;75.31;102187.91;5052295;28;20719;-71
2022/02/23 08:53:39;;;;;;;22.37;4.70;;;;;;;8.03;76.13;102186.41;5052081;28;20715;-71
2022/02/23 08:56:04;;;;;;;22.77;4.83;;;;;;;8.16;75.70;102201.56;5052294;28;20206;-71
2022/02/23 08:58:29;;;;;;;23.97;4.57;;;;;;;8.24;75.21;102201.16;5052101;28;20185;-72
2022/02/23 09:00:55;;;;;;;21.77;4.83;;;;;;;8.23;75.89;102199.41;5052322;28;20247;-71
2022/02/23 09:03:22;;;;;;;21.07;5.20;;;;;;;8.15;75.97;102200.66;5051919;28;20695;-73
2022/02/23 09:05:48;;;;;;;22.73;4.73;;;;;;;8.13;74.97;102211.59;5052127;28;20177;-71
2022/02/23 09:08:13;;;;;;;19.23;4.23;;;;;;;8.28;75.09;102208.19;5052035;28;20193;-71
2022/02/23 09:10:39;;;;;;;19.87;4.47;;;;;;;8.25;74.46;102213.13;5051910;28;20586;-71
2022/02/23 09:13:06;;;;;;;19.70;4.80;;;;;;;8.46;74.68;102211.66;5051634;28;20185;-71
2022/02/23 09:15:32;;;;;;;17.60;4.93;;;;;;;8.54;74.10;102212.03;5047645;28;20660;-71
2022/02/23 09:17:57;;;;;;;24.67;4.80;;;;;;;8.80;73.47;102216.75;5031828;28;20190;-72
2022/02/23 09:20:23;;;;;;;18.37;4.80;;;;;;;8.59;74.01;102211.47;5031964;28;20198;-73
2022/02/23 09:22:48;;;;;;;22.47;4.30;;;;;;;8.36;75.64;102222.22;5031286;28;20198;-71
2022/02/23 09:25:13;;;;;;;18.30;4.03;;;;;;;8.48;75.77;102219.38;5031873;28;20561;-72
2022/02/23 09:27:39;;;;;;;17.80;4.17;;;;;;;9.34;71.56;102219.31;5031921;28;20562;-71
2022/02/23 09:30:08;;;;;;;23.80;4.97;;;;;;;9.34;71.37;102215.09;5031769;28;20661;-71
2022/02/23 09:32:33;;;;;;;21.00;5.13;;;;;;;9.03;72.79;102221.28;5031437;28;20178;-72
2022/02/23 09:34:59;;;;;;;18.53;4.50;;;;;;;12.78;63.47;102214.44;5022685;28;20810;-71
2022/02/23 09:37:24;;;;;;;16.53;3.93;;;;;;;10.83;65.06;102222.53;5031631;28;20233;-72
2022/02/23 09:39:49;;;;;;;20.30;4.77;;;;;;;12.14;62.96;102215.66;5011869;28;20249;-72
2022/02/23 09:42:15;;;;;;;16.53;4.37;;;;;;;11.69;62.92;102228.50;5029791;28;20238;-71
2022/02/23 09:44:42;;;;;;;21.37;4.03;;;;;;;10.63;66.01;102227.66;5031474;28;20214;-71
2022/02/23 09:47:09;;;;;;;21.03;5.77;;;;;;;11.96;63.62;102226.97;5031370;28;20324;-72
2022/02/23 09:49:35;;;;;;;20.37;4.67;;;;;;;13.81;55.02;102220.19;5031340;28;20214;-72
2022/02/23 09:52:01;;;;;;;20.33;5.13;;;;;;;13.60;55.92;102219.56;5031201;28;20213;-73
2022/02/23 09:54:27;;;;;;;18.67;4.83;;;;;;;11.71;62.39;102232.03;5029506;28;20183;-71
2022/02/23 09:56:52;;;;;;;18.87;4.90;;;;;;;12.59;56.41;102226.63;5029935;28;20244;-72
2022/02/23 09:59:17;;;;;;;19.40;4.90;;;;;;;14.58;53.32;102218.00;5031074;28;20653;-72
2022/02/23 10:01:44;;;;;;;16.57;4.73;;;;;;;17.15;45.99;102204.38;5029690;28;20579;-71
2022/02/23 10:04:10;;;;;;;17.40;4.60;;;;;;;14.65;50.22;102222.50;5030652;28;20218;-72
2022/02/23 10:06:37;;;;;;;17.73;4.57;;;;;;;14.20;53.28;102229.94;5031057;28;20190;-71
2022/02/23 10:09:11;;;;;;;16.70;5.03;;;;;;;15.10;50.82;102221.91;5030994;28;20221;-71
2022/02/23 10:11:39;;;;;;;18.13;4.17;;;;;;;16.23;47.15;102225.22;5031001;28;20392;-71
2022/02/23 10:14:06;;;;;;;22.47;4.97;;;;;;;14.16;53.46;102229.75;5030882;28;20179;-71
2022/02/23 10:16:33;;;;;;;15.00;4.30;;;;;;;16.35;47.60;102225.41;5029657;28;20186;-71
2022/02/23 10:19:13;;;;;;;19.23;4.73;;;;;;;16.80;46.94;102223.66;5030753;28;20198;-71
2022/02/23 10:21:57;;;;;;;17.90;4.90;;;;;;;18.28;42.69;102223.97;5030790;28;20217;-71
2022/02/23 10:24:31;;;;;;;16.00;4.97;;;;;;;18.89;42.35;102218.50;5030295;28;20202;-72
2022/02/23 10:27:04;;;;;;;14.90;4.80;;;;;;;19.69;39.73;102214.66;5030689;28;20290;-73
2022/02/23 10:29:36;;;;;;;19.83;4.78;;;;;;;19.16;39.88;102221.28;5029005;28;20289;-73
2022/02/23 10:32:09;;;;;;;11.00;4.20;;;;;;;20.24;37.30;102214.00;5030636;28;20214;-72
2022/02/23 10:34:43;;;;;;;14.82;4.32;;;;;;;20.62;37.70;102210.59;5025693;28;20181;-71
2022/02/23 10:37:10;;;;;;;14.43;4.70;;;;;;;20.14;38.14;102220.94;5030510;28;20675;-71
2022/02/23 10:39:38;;;;;;;14.82;4.63;;;;;;;18.04;42.21;102224.56;5017232;28;20237;-70
2022/02/23 10:42:05;;;;;;;12.77;4.32;;;;;;;20.77;37.61;102214.94;5030179;28;20226;-70
2022/02/23 10:44:32;;;;;;;14.70;4.40;;;;;;;22.34;34.70;102216.19;5028997;28;20230;-71
2022/02/23 10:46:59;;;;;;;14.65;4.65;;;;;;;20.32;37.99;102225.31;5030322;28;20256;-70
2022/02/23 10:49:25;;;;;;;11.82;4.20;;;;;;;21.69;34.32;102210.47;5030234;28;20683;-72
2022/02/23 10:51:53;;;;;;;18.20;4.63;;;;;;;22.94;33.39;102207.88;5030022;28;20297;-72
2022/02/23 10:54:20;;;;;;;10.38;3.92;;;;;;;22.51;33.42;102211.72;5029856;28;20178;-73
2022/02/23 10:56:45;;;;;;;11.88;3.80;;;;;;;23.53;32.53;102209.91;5030154;28;20182;-72
2022/02/23 10:59:22;;;;;;;14.27;4.60;;;;;;;24.02;30.79;102216.25;5030072;28;20178;-72
2022/02/23 11:01:48;;;;;;;12.32;4.22;;;;;;;24.19;30.65;102223.00;5029920;28;20221;-72
2022/02/23 11:04:15;;;;;;;11.25;3.95;;;;;;;23.41;30.69;102216.13;5029666;28;20204;-72
2022/02/23 11:06:42;;;;;;;11.02;3.80;;;;;;;23.03;31.59;102222.59;5029677;28;20657;-72
2022/02/23 11:09:09;;;;;;;10.07;3.88;;;;;;;21.36;32.89;102227.03;5029849;28;20201;-72
2022/02/23 11:11:34;;;;;;;10.63;3.33;;;;;;;22.99;30.68;102227.00;5029821;28;20207;-71
2022/02/23 11:14:01;;;;;;;9.75;3.45;;;;;;;22.18;32.15;102225.84;5029674;28;20282;-71
2022/02/23 11:16:28;;;;;;;9.80;3.47;;;;;;;22.41;31.43;102227.44;5029721;28;20195;-71
2022/02/23 11:18:57;;;;;;;9.38;3.80;;;;;;;20.70;32.79;102231.41;5027271;28;20273;-73
2022/02/23 11:21:25;;;;;;;9.27;3.75;;;;;;;21.98;31.32;102232.06;5028286;28;20715;-72
2022/02/23 11:23:57;;;;;;;9.70;3.60;;;;;;;17.86;37.73;102250.25;5029339;28;20759;-72
2022/02/23 11:26:24;;;;;;;9.23;2.60;;;;;;;18.73;37.42;102245.16;5029628;28;20170;-71